createdAt,value
2022-10-07T00:01:55.973Z,102923.44
2022-10-07T00:04:22.323Z,102931.09
2022-10-07T00:06:48.853Z,102925.16
2022-10-07T00:09:15.187Z,102923.44
2022-10-07T00:11:41.826Z,102915.78
2022-10-07T00:14:08.589Z,102914.97
2022-10-07T00:16:37.964Z,102914.13
2022-10-07T00:19:07.538Z,102907.31
2022-10-07T00:21:35.356Z,102903.91
2022-10-07T00:24:02.217Z,102897.16
2022-10-07T00:26:30.908Z,102897.16
2022-10-07T00:28:57.558Z,102898.88
2022-10-07T00:31:36.470Z,102900.59
2022-10-07T00:34:04.005Z,102896.38
2022-10-07T00:36:35.665Z,102898.09
2022-10-07T00:39:07.970Z,102900.63
2022-10-07T00:41:50.095Z,102896.38
2022-10-07T00:44:31.662Z,102882.75
2022-10-07T00:47:05.981Z,102887.88
2022-10-07T00:49:41.660Z,102885.31
2022-10-07T00:52:08.453Z,102881.03
2022-10-07T00:54:36.238Z,102882.75
2022-10-07T00:57:03.433Z,102870.81
2022-10-07T00:59:29.804Z,102878.50
2022-10-07T01:01:56.145Z,102879.38
2022-10-07T01:04:22.504Z,102873.38
2022-10-07T01:06:48.927Z,102871.69
2022-10-07T01:09:15.637Z,102868.25
2022-10-07T01:12:01.304Z,102862.25
2022-10-07T01:15:03.857Z,102857.16
2022-10-07T01:17:46.224Z,102850.31
2022-10-07T01:20:25.638Z,102845.19
2022-10-07T01:22:56.608Z,102838.41
2022-10-07T01:25:26.339Z,102844.34
2022-10-07T01:28:00.925Z,102845.16
2022-10-07T01:30:31.650Z,102840.03
2022-10-07T01:33:04.340Z,102832.38
2022-10-07T01:35:35.197Z,102834.91
2022-10-07T01:38:06.722Z,102834.88
2022-10-07T01:40:41.942Z,102825.53
2022-10-07T01:43:08.669Z,102825.53
2022-10-07T01:45:39.693Z,102828.91
2022-10-07T01:48:06.177Z,102819.56
2022-10-07T01:50:33.458Z,102817.81
2022-10-07T01:53:12.581Z,102810.13
2022-10-07T01:55:50.296Z,102799.94
2022-10-07T01:58:41.129Z,102795.66
2022-10-07T02:01:27.132Z,102798.22
2022-10-07T02:04:19.398Z,102795.72
2022-10-07T02:06:59.750Z,102789.75
2022-10-07T02:09:36.496Z,102778.69
2022-10-07T02:13:01.417Z,102772.72
2022-10-07T02:15:36.271Z,102770.19
2022-10-07T02:18:08.073Z,102765.91
2022-10-07T02:20:38.039Z,102759.97
2022-10-07T02:23:08.497Z,102759.97
2022-10-07T02:25:40.823Z,102750.59
2022-10-07T02:28:10.514Z,102753.16
2022-10-07T02:30:37.803Z,102750.59
2022-10-07T02:33:07.654Z,102748.03
2022-10-07T02:35:45.312Z,102745.44
2022-10-07T02:38:14.441Z,102730.97
2022-10-07T02:40:59.748Z,102730.97
2022-10-07T02:43:50.580Z,102730.09
2022-10-07T02:46:24.975Z,102733.50
2022-10-07T02:48:58.738Z,102728.41
2022-10-07T02:51:34.962Z,102724.97
2022-10-07T02:54:03.398Z,102724.97
2022-10-07T02:56:33.705Z,102722.41
2022-10-07T02:59:06.694Z,102717.28
2022-10-07T03:01:38.632Z,102725.78
2022-10-07T03:04:05.934Z,102718.97
2022-10-07T03:06:34.949Z,102713.88
2022-10-07T03:09:01.676Z,102714.75
2022-10-07T03:11:28.546Z,102707.94
2022-10-07T03:13:54.971Z,102712.19
2022-10-07T03:16:21.560Z,102704.53
2022-10-07T03:18:47.944Z,102700.25
2022-10-07T03:21:14.402Z,102693.44
2022-10-07T03:23:40.735Z,102686.59
2022-10-07T03:26:07.048Z,102689.16
2022-10-07T03:28:37.211Z,102686.56
2022-10-07T03:31:05.944Z,102684.84
2022-10-07T03:33:32.462Z,102683.16
2022-10-07T03:35:58.773Z,102682.38
2022-10-07T03:38:25.104Z,102680.66
2022-10-07T03:40:51.423Z,102677.25
2022-10-07T03:43:18.278Z,102678.94
2022-10-07T03:45:51.158Z,102678.09
2022-10-07T03:48:18.145Z,102673.81
2022-10-07T03:50:56.413Z,102673.81
2022-10-07T03:53:23.573Z,102668.69
2022-10-07T03:55:50.352Z,102672.09
2022-10-07T03:58:16.769Z,102671.25
2022-10-07T04:00:43.178Z,102672.94
2022-10-07T04:03:10.031Z,102663.59
2022-10-07T04:05:36.991Z,102663.59
2022-10-07T04:08:07.251Z,102661.88
2022-10-07T04:10:34.388Z,102655.06
2022-10-07T04:13:01.009Z,102663.59
2022-10-07T04:15:27.401Z,102656.75
2022-10-07T04:17:58.459Z,102660.13
2022-10-07T04:20:25.983Z,102652.47
2022-10-07T04:22:52.366Z,102659.28
2022-10-07T04:25:33.913Z,102654.16
2022-10-07T04:28:08.466Z,102655.84
2022-10-07T04:30:39.785Z,102652.44
2022-10-07T04:33:06.301Z,102652.44
2022-10-07T04:35:36.729Z,102647.34
2022-10-07T04:38:03.093Z,102649.03
2022-10-07T04:40:30.948Z,102650.72
2022-10-07T04:43:15.908Z,102652.44
2022-10-07T04:45:42.255Z,102643.91
2022-10-07T04:48:08.714Z,102651.56
2022-10-07T04:50:38.501Z,102649.84
2022-10-07T04:53:10.843Z,102653.22
2022-10-07T04:55:42.661Z,102645.53
2022-10-07T04:58:09.881Z,102635.31
2022-10-07T05:00:45.202Z,102637.88
2022-10-07T05:03:13.872Z,102640.44
2022-10-07T05:05:42.278Z,102633.63
2022-10-07T05:08:09.010Z,102635.31
2022-10-07T05:10:37.169Z,102631.06
2022-10-07T05:13:04.955Z,102632.78
2022-10-07T05:15:31.701Z,102634.44
2022-10-07T05:17:58.252Z,102630.19
2022-10-07T05:20:24.617Z,102624.25
2022-10-07T05:22:50.965Z,102624.25
2022-10-07T05:25:17.352Z,102627.66
2022-10-07T05:27:44.169Z,102619.13
2022-10-07T05:30:11.487Z,102625.97
2022-10-07T05:32:37.817Z,102617.47
2022-10-07T05:35:04.446Z,102614.03
2022-10-07T05:37:32.280Z,102617.47
2022-10-07T05:39:58.653Z,102618.31
2022-10-07T05:42:24.979Z,102614.09
2022-10-07T05:44:51.370Z,102611.56
2022-10-07T05:47:18.833Z,102612.44
2022-10-07T05:49:45.181Z,102611.59
2022-10-07T05:52:11.569Z,102603.13
2022-10-07T05:54:38.230Z,102599.75
2022-10-07T05:57:04.757Z,102594.66
2022-10-07T05:59:31.326Z,102598.13
2022-10-07T06:02:00.121Z,102593.88
2022-10-07T06:04:27.535Z,102593.03
2022-10-07T06:06:53.909Z,102592.22
2022-10-07T06:09:39.609Z,102589.72
2022-10-07T06:12:24.397Z,102585.50
2022-10-07T06:14:51.231Z,102585.56
2022-10-07T06:17:17.588Z,102589.84
2022-10-07T06:19:43.903Z,102591.59
2022-10-07T06:22:11.085Z,102591.63
2022-10-07T06:24:37.489Z,102595.06
2022-10-07T06:27:03.975Z,102589.16
2022-10-07T06:29:30.350Z,102590.88
2022-10-07T06:31:56.681Z,102593.47
2022-10-07T06:34:23.066Z,102590.06
2022-10-07T06:36:49.429Z,102585.84
2022-10-07T06:39:17.597Z,102587.59
2022-10-07T06:41:44.268Z,102589.28
2022-10-07T06:44:10.713Z,102589.34
2022-10-07T06:46:37.037Z,102588.47
2022-10-07T06:49:04.771Z,102584.22
2022-10-07T06:51:31.182Z,102585.97
2022-10-07T06:54:00.200Z,102582.56
2022-10-07T06:56:26.553Z,102585.97
2022-10-07T06:58:52.979Z,102589.41
2022-10-07T07:01:19.364Z,102586.84
2022-10-07T07:03:45.898Z,102586.00
2022-10-07T07:06:12.349Z,102592.81
2022-10-07T07:08:41.268Z,102597.09
2022-10-07T07:11:29.400Z,102592.00
2022-10-07T07:13:56.507Z,102580.03
2022-10-07T07:16:27.058Z,102590.28
2022-10-07T07:18:56.144Z,102592.84
2022-10-07T07:21:23.184Z,102583.44
2022-10-07T07:23:53.912Z,102582.63
2022-10-07T07:26:20.786Z,102584.34
2022-10-07T07:28:54.990Z,102578.34
2022-10-07T07:31:21.433Z,102574.09
2022-10-07T07:33:52.392Z,102568.94
2022-10-07T07:36:22.594Z,102582.56
2022-10-07T07:39:01.385Z,102584.25
2022-10-07T07:41:31.381Z,102581.69
2022-10-07T07:43:59.854Z,102579.94
2022-10-07T07:46:31.963Z,102581.63
2022-10-07T07:48:58.467Z,102574.75
2022-10-07T07:51:25.070Z,102573.84
2022-10-07T07:53:52.275Z,102577.22
2022-10-07T07:56:20.149Z,102568.66
2022-10-07T07:58:46.880Z,102569.44
2022-10-07T08:01:16.026Z,102559.13
2022-10-07T08:03:44.465Z,102567.63
2022-10-07T08:06:12.110Z,102559.00
2022-10-07T08:08:40.046Z,102559.81
2022-10-07T08:11:08.070Z,102558.91
2022-10-07T08:13:36.394Z,102549.44
2022-10-07T08:16:04.939Z,102545.91
2022-10-07T08:18:32.198Z,102545.88
2022-10-07T08:21:00.285Z,102539.78
2022-10-07T08:23:29.292Z,102544.75
2022-10-07T08:25:59.698Z,102542.00
2022-10-07T08:28:28.259Z,102541.81
2022-10-07T08:31:01.105Z,102530.44
2022-10-07T08:33:27.512Z,102541.44
2022-10-07T08:36:01.124Z,102543.22
2022-10-07T08:38:32.981Z,102535.63
2022-10-07T08:41:14.113Z,102543.28
2022-10-07T08:43:46.442Z,102531.13
2022-10-07T08:46:16.709Z,102535.28
2022-10-07T08:48:52.124Z,102528.31
2022-10-07T08:51:24.551Z,102524.69
2022-10-07T08:53:55.643Z,102530.50
2022-10-07T08:56:26.785Z,102536.41
2022-10-07T08:59:21.682Z,102526.19
2022-10-07T09:02:14.269Z,102524.31
2022-10-07T09:04:46.517Z,102516.41
2022-10-07T09:07:25.659Z,102510.25
2022-10-07T09:10:06.740Z,102518.06
2022-10-07T09:12:41.961Z,102510.47
2022-10-07T09:15:19.610Z,102510.66
2022-10-07T09:17:59.086Z,102519.34
2022-10-07T09:20:42.056Z,102515.84
2022-10-07T09:23:15.270Z,102516.69
2022-10-07T09:25:43.267Z,102514.78
2022-10-07T09:28:16.062Z,102501.50
2022-10-07T09:30:42.945Z,102502.81
2022-10-07T09:33:16.267Z,102495.69
2022-10-07T09:35:57.261Z,102503.19
2022-10-07T09:38:39.621Z,102497.88
2022-10-07T09:41:30.394Z,102494.19
2022-10-07T09:44:19.446Z,102506.06
2022-10-07T09:46:59.369Z,102494.47
2022-10-07T09:49:28.775Z,102492.50
2022-10-07T09:52:02.212Z,102478.56
2022-10-07T09:54:30.883Z,102483.72
2022-10-07T09:57:00.073Z,102481.09
2022-10-07T09:59:27.883Z,102475.84
2022-10-07T10:01:57.833Z,102477.31
2022-10-07T10:04:31.600Z,102464.28
2022-10-07T10:07:06.313Z,102467.78
2022-10-07T10:09:34.918Z,102453.66
2022-10-07T10:12:12.845Z,102454.09
2022-10-07T10:14:49.999Z,102452.94
2022-10-07T10:17:27.036Z,102448.25
2022-10-07T10:19:53.925Z,102452.91
2022-10-07T10:22:26.814Z,102444.81
2022-10-07T10:25:13.425Z,102436.66
2022-10-07T10:27:54.213Z,102431.16
2022-10-07T10:30:22.692Z,102435.16
2022-10-07T10:33:07.566Z,102438.88
2022-10-07T10:35:39.414Z,102439.22
2022-10-07T10:38:33.044Z,102437.09
2022-10-07T10:41:19.911Z,102428.84
2022-10-07T10:44:03.474Z,102422.47
2022-10-07T10:46:59.988Z,102419.09
2022-10-07T10:49:54.747Z,102421.47
2022-10-07T10:52:35.345Z,102419.59
2022-10-07T10:55:17.729Z,102409.47
2022-10-07T10:57:56.843Z,102406.41
2022-10-07T11:00:48.846Z,102390.88
2022-10-07T11:03:34.074Z,102397.94
2022-10-07T11:06:06.335Z,102396.81
2022-10-07T11:08:38.431Z,102391.63
2022-10-07T11:11:09.170Z,102380.91
2022-10-07T11:13:56.728Z,102380.13
2022-10-07T11:16:28.028Z,102363.22
2022-10-07T11:19:16.357Z,102381.28
2022-10-07T11:21:48.477Z,102367.78
2022-10-07T11:24:28.904Z,102365.41
2022-10-07T11:27:19.441Z,102362.94
2022-10-07T11:29:55.069Z,102358.09
2022-10-07T11:32:49.301Z,102346.97
2022-10-07T11:35:38.361Z,102345.75
2022-10-07T11:38:12.181Z,102340.63
2022-10-07T11:40:52.017Z,102338.59
2022-10-07T11:43:30.533Z,102336.13
2022-10-07T11:46:07.894Z,102329.09
2022-10-07T11:48:43.803Z,102313.63
2022-10-07T11:51:21.520Z,102302.50
2022-10-07T11:53:48.502Z,102312.69
2022-10-07T11:56:16.877Z,102308.56
2022-10-07T11:58:44.534Z,102312.56
2022-10-07T12:01:26.166Z,102294.63
2022-10-07T12:03:54.614Z,102300.66
2022-10-07T12:06:20.963Z,102287.94
2022-10-07T12:08:47.539Z,102275.69
2022-10-07T12:11:17.214Z,102281.69
2022-10-07T12:13:47.621Z,102279.91
2022-10-07T12:16:32.213Z,102268.44
2022-10-07T12:19:07.588Z,102264.28
2022-10-07T12:21:57.874Z,102251.97
2022-10-07T12:24:24.219Z,102252.53
2022-10-07T12:26:51.435Z,102261.31
2022-10-07T12:29:59.644Z,102254.06
2022-10-07T12:32:48.169Z,102246.16
2022-10-07T12:35:29.972Z,102225.34
2022-10-07T12:38:23.474Z,102226.16
2022-10-07T12:41:14.762Z,102212.22
2022-10-07T12:43:57.122Z,102218.47
2022-10-07T12:46:26.456Z,102208.75
2022-10-07T12:49:30.113Z,102214.56
2022-10-07T12:52:00.514Z,102212.41
2022-10-07T12:54:44.796Z,102214.59
2022-10-07T12:57:16.819Z,102212.25
2022-10-07T13:00:02.925Z,102204.59
2022-10-07T13:02:57.148Z,102205.63
2022-10-07T13:06:01.409Z,102197.53
2022-10-07T13:08:42.067Z,102194.41
2022-10-07T13:11:47.522Z,102188.56
2022-10-07T13:14:36.233Z,102195.91
2022-10-07T13:17:16.485Z,102190.06
2022-10-07T13:19:56.752Z,102181.03
2022-10-07T13:22:24.237Z,102183.56
2022-10-07T13:24:55.230Z,102182.28
2022-10-07T13:27:32.629Z,102159.00
2022-10-07T13:30:01.663Z,102162.44
2022-10-07T13:32:34.256Z,102163.97
2022-10-07T13:35:29.285Z,102149.22
2022-10-07T13:37:55.767Z,102150.50
2022-10-07T13:40:34.007Z,102152.09
2022-10-07T13:43:02.833Z,102153.94
2022-10-07T13:45:32.157Z,102152.31
2022-10-07T13:47:58.849Z,102151.28
2022-10-07T13:50:27.728Z,102140.69
2022-10-07T13:52:56.270Z,102140.75
2022-10-07T13:55:25.684Z,102136.19
2022-10-07T13:57:54.733Z,102138.88
2022-10-07T14:00:21.153Z,102129.66
2022-10-07T14:02:49.585Z,102127.13
2022-10-07T14:05:29.837Z,102123.63
2022-10-07T14:08:10.729Z,102120.91
2022-10-07T14:11:05.884Z,102113.66
2022-10-07T14:13:34.637Z,102103.72
2022-10-07T14:16:01.241Z,102110.47
2022-10-07T14:18:31.874Z,102097.50
2022-10-07T14:21:16.938Z,102095.13
2022-10-07T14:23:46.840Z,102103.34
2022-10-07T14:26:17.655Z,102095.69
2022-10-07T14:28:44.931Z,102095.00
2022-10-07T14:31:37.671Z,102089.16
2022-10-07T14:34:32.196Z,102093.91
2022-10-07T14:37:10.316Z,102083.50
2022-10-07T14:39:49.945Z,102080.97
2022-10-07T14:42:35.853Z,102071.63
2022-10-07T14:45:04.929Z,102068.91
2022-10-07T14:47:31.854Z,102081.50
2022-10-07T14:50:01.270Z,102072.88
2022-10-07T14:52:31.875Z,102076.41
2022-10-07T14:54:59.542Z,102071.38
2022-10-07T14:57:26.104Z,102072.59
2022-10-07T14:59:53.281Z,102066.66
2022-10-07T15:02:20.305Z,102068.56
2022-10-07T15:04:47.326Z,102066.88
2022-10-07T15:07:16.408Z,102059.97
2022-10-07T15:09:44.799Z,102057.25
2022-10-07T15:12:12.860Z,102048.50
2022-10-07T15:14:39.228Z,102048.44
2022-10-07T15:17:06.034Z,102042.28
2022-10-07T15:19:35.820Z,102037.94
2022-10-07T15:22:02.164Z,102029.19
2022-10-07T15:24:30.126Z,102030.38
2022-10-07T15:26:56.478Z,102027.13
2022-10-07T15:29:23.668Z,102028.09
2022-10-07T15:31:52.134Z,102031.88
2022-10-07T15:34:18.556Z,102031.88
2022-10-07T15:36:48.546Z,102033.22
2022-10-07T15:39:15.373Z,102023.13
2022-10-07T15:41:43.166Z,102018.84
2022-10-07T15:44:16.102Z,102013.72
2022-10-07T15:46:44.011Z,102016.47
2022-10-07T15:49:10.748Z,102016.78
2022-10-07T15:51:37.394Z,102004.91
2022-10-07T15:54:05.312Z,102007.75
2022-10-07T15:56:32.405Z,102010.63
2022-10-07T15:59:00.475Z,102010.78
2022-10-07T16:01:28.742Z,102006.50
2022-10-07T16:03:55.783Z,102005.81
2022-10-07T16:06:27.515Z,102003.38
2022-10-07T16:08:56.318Z,102002.75
2022-10-07T16:11:22.779Z,102004.66
2022-10-07T16:13:49.834Z,101996.16
2022-10-07T16:16:22.726Z,101997.22
2022-10-07T16:18:51.564Z,101995.66
2022-10-07T16:21:22.619Z,101987.13
2022-10-07T16:23:56.184Z,101986.28
2022-10-07T16:26:26.317Z,101980.59
2022-10-07T16:29:12.940Z,101987.81
2022-10-07T16:31:41.850Z,101977.72
2022-10-07T16:34:10.800Z,101976.97
2022-10-07T16:36:40.996Z,101978.09
2022-10-07T16:39:10.005Z,101968.94
2022-10-07T16:41:37.577Z,101964.91
2022-10-07T16:44:04.986Z,101966.03
2022-10-07T16:46:32.213Z,101967.19
2022-10-07T16:49:00.227Z,101977.72
2022-10-07T16:51:30.570Z,101964.13
2022-10-07T16:54:01.628Z,101964.44
2022-10-07T16:56:30.032Z,101970.66
2022-10-07T16:58:58.372Z,101978.66
2022-10-07T17:01:26.885Z,101968.56
2022-10-07T17:03:54.637Z,101972.19
2022-10-07T17:06:22.676Z,101973.28
2022-10-07T17:08:49.415Z,101974.31
2022-10-07T17:11:31.223Z,101972.00
2022-10-07T17:14:06.952Z,101966.13
2022-10-07T17:16:42.781Z,101963.78
2022-10-07T17:19:12.776Z,101958.78
2022-10-07T17:21:41.743Z,101950.41
2022-10-07T17:24:09.732Z,101959.13
2022-10-07T17:26:37.421Z,101959.38
2022-10-07T17:29:09.777Z,101965.66
2022-10-07T17:31:39.021Z,101969.16
2022-10-07T17:34:06.244Z,101959.06
2022-10-07T17:36:33.222Z,101965.22
2022-10-07T17:39:00.205Z,101961.13
2022-10-07T17:41:28.891Z,101965.53
2022-10-07T17:43:57.289Z,101965.72
2022-10-07T17:46:25.968Z,101966.69
2022-10-07T17:48:54.944Z,101967.63
2022-10-07T17:51:24.043Z,101960.88
2022-10-07T17:53:51.022Z,101963.59
2022-10-07T17:56:17.929Z,101965.47
2022-10-07T17:58:45.874Z,101959.53
2022-10-07T18:01:19.450Z,101963.91
2022-10-07T18:03:51.330Z,101965.75
2022-10-07T18:06:17.683Z,101960.78
2022-10-07T18:08:44.231Z,101968.50
2022-10-07T18:11:10.743Z,101971.22
2022-10-07T18:13:56.029Z,101970.44
2022-10-07T18:16:22.755Z,101961.06
2022-10-07T18:18:58.555Z,101957.72
2022-10-07T18:21:25.152Z,101959.41
2022-10-07T18:23:54.262Z,101956.84
2022-10-07T18:26:20.625Z,101962.84
2022-10-07T18:28:47.454Z,101958.59
2022-10-07T18:31:16.769Z,101954.31
2022-10-07T18:33:44.679Z,101956.00
2022-10-07T18:36:16.751Z,101958.59
2022-10-07T18:38:44.493Z,101956.88
2022-10-07T18:41:13.798Z,101950.94
2022-10-07T18:43:41.415Z,101952.63
2022-10-07T18:46:14.119Z,101948.38
2022-10-07T18:48:41.976Z,101949.22
2022-10-07T18:51:10.279Z,101946.63
2022-10-07T18:53:38.373Z,101949.25
2022-10-07T18:56:07.401Z,101939.84
2022-10-07T18:58:39.668Z,101937.25
2022-10-07T19:01:08.146Z,101942.50
2022-10-07T19:03:37.293Z,101929.63
2022-10-07T19:06:09.592Z,101928.88
2022-10-07T19:08:36.852Z,101926.41
2022-10-07T19:11:05.308Z,101926.53
2022-10-07T19:13:51.890Z,101930.97
2022-10-07T19:16:23.786Z,101931.06
2022-10-07T19:18:55.144Z,101931.97
2022-10-07T19:21:23.009Z,101926.09
2022-10-07T19:23:51.730Z,101926.19
2022-10-07T19:26:21.560Z,101921.94
2022-10-07T19:28:49.763Z,101915.16
2022-10-07T19:31:25.740Z,101915.25
2022-10-07T19:33:56.513Z,101916.16
2022-10-07T19:36:23.321Z,101913.63
2022-10-07T19:38:53.468Z,101913.63
2022-10-07T19:41:22.936Z,101914.59
2022-10-07T19:43:49.925Z,101912.09
2022-10-07T19:46:18.128Z,101905.31
2022-10-07T19:48:45.356Z,101910.47
2022-10-07T19:51:14.518Z,101913.97
2022-10-07T19:53:46.626Z,101905.44
2022-10-07T19:56:25.292Z,101908.91
2022-10-07T19:59:05.401Z,101906.38
2022-10-07T20:01:34.901Z,101901.31
2022-10-07T20:04:14.034Z,101903.06
2022-10-07T20:06:41.557Z,101892.00
2022-10-07T20:09:11.169Z,101898.00
2022-10-07T20:11:37.691Z,101896.31
2022-10-07T20:14:05.753Z,101896.34
2022-10-07T20:16:34.022Z,101898.13
2022-10-07T20:19:06.653Z,101890.47
2022-10-07T20:21:35.948Z,101885.38
2022-10-07T20:24:03.211Z,101894.81
2022-10-07T20:26:35.390Z,101897.44
2022-10-07T20:29:06.959Z,101897.47
2022-10-07T20:31:35.579Z,101895.75
2022-10-07T20:34:02.807Z,101888.09
2022-10-07T20:36:32.246Z,101887.31
2022-10-07T20:39:20.489Z,101885.59
2022-10-07T20:42:05.792Z,101880.50
2022-10-07T20:44:32.541Z,101874.53
2022-10-07T20:46:58.985Z,101876.31
2022-10-07T20:49:28.591Z,101868.63
2022-10-07T20:51:57.213Z,101870.34
2022-10-07T20:54:25.585Z,101874.66
2022-10-07T20:56:52.969Z,101869.59
2022-10-07T20:59:20.344Z,101870.47
2022-10-07T21:01:46.966Z,101867.09
2022-10-07T21:04:14.877Z,101870.59
2022-10-07T21:06:42.210Z,101876.59
2022-10-07T21:09:09.532Z,101864.66
2022-10-07T21:11:36.397Z,101868.09
2022-10-07T21:14:03.069Z,101864.72
2022-10-07T21:16:30.842Z,101860.47
2022-10-07T21:18:57.606Z,101851.94
2022-10-07T21:21:24.805Z,101861.38
2022-10-07T21:23:51.654Z,101862.22
2022-10-07T21:26:18.830Z,101865.69
2022-10-07T21:28:48.091Z,101858.84
2022-10-07T21:31:17.456Z,101855.50
2022-10-07T21:33:47.916Z,101851.25
2022-10-07T21:36:17.133Z,101841.03
2022-10-07T21:38:45.351Z,101852.16
2022-10-07T21:41:20.776Z,101845.34
2022-10-07T21:43:54.395Z,101842.75
2022-10-07T21:46:23.065Z,101836.84
2022-10-07T21:48:49.885Z,101841.94
2022-10-07T21:51:16.880Z,101840.22
2022-10-07T21:53:44.197Z,101834.25
2022-10-07T21:56:12.164Z,101837.66
2022-10-07T21:58:39.148Z,101832.50
2022-10-07T22:01:07.466Z,101823.88
2022-10-07T22:03:34.768Z,101827.22
2022-10-07T22:06:06.458Z,101826.28
2022-10-07T22:08:36.704Z,101815.97
2022-10-07T22:11:15.120Z,101815.91
2022-10-07T22:13:46.794Z,101812.41
2022-10-07T22:16:16.030Z,101808.94
2022-10-07T22:18:49.292Z,101803.75
2022-10-07T22:21:22.697Z,101807.13
2022-10-07T22:23:50.943Z,101803.66
2022-10-07T22:26:18.841Z,101801.03
2022-10-07T22:28:46.497Z,101812.13
2022-10-07T22:31:14.882Z,101801.78
2022-10-07T22:33:42.051Z,101796.66
2022-10-07T22:36:10.877Z,101788.91
2022-10-07T22:38:38.104Z,101787.13
2022-10-07T22:41:10.616Z,101790.50
2022-10-07T22:43:44.893Z,101781.03
2022-10-07T22:46:26.800Z,101784.38
2022-10-07T22:48:56.223Z,101780.88
2022-10-07T22:51:24.306Z,101769.72
2022-10-07T22:53:53.933Z,101784.28
2022-10-07T22:56:22.210Z,101773.09
2022-10-07T22:58:53.063Z,101777.41
2022-10-07T23:01:20.232Z,101778.22
2022-10-07T23:03:46.958Z,101775.66
2022-10-07T23:06:15.932Z,101768.78
2022-10-07T23:08:44.654Z,101771.34
2022-10-07T23:11:16.058Z,101767.03
2022-10-07T23:13:42.961Z,101773.00
2022-10-07T23:16:12.092Z,101772.13
2022-10-07T23:18:43.036Z,101772.13
2022-10-07T23:21:18.866Z,101759.25
2022-10-07T23:23:47.953Z,101770.34
2022-10-07T23:26:19.029Z,101775.44
2022-10-07T23:28:47.214Z,101772.84
2022-10-07T23:31:14.669Z,101783.06
2022-10-07T23:33:41.170Z,101784.75
2022-10-07T23:36:10.432Z,101777.88
2022-10-07T23:38:38.948Z,101782.13
2022-10-07T23:41:06.524Z,101778.69
2022-10-07T23:43:33.442Z,101788.94
2022-10-07T23:46:01.151Z,101786.31
2022-10-07T23:48:27.745Z,101784.56
2022-10-07T23:50:57.532Z,101777.69
2022-10-07T23:53:23.886Z,101782.78
2022-10-07T23:55:52.215Z,101785.31
2022-10-07T23:58:20.980Z,101790.41
